sensor_id;sensor_type;location;lat;lon;timestamp;P1;durP1;ratioP1;P2;durP2;ratioP2
43152;SDS011;28756;49.064;9.290;2022-08-24T00:01:08;1.27;;;1.00;;
43152;SDS011;28756;49.064;9.290;2022-08-24T00:03:37;1.55;;;1.15;;
43152;SDS011;28756;49.064;9.290;2022-08-24T00:06:04;1.67;;;1.30;;
43152;SDS011;28756;49.064;9.290;2022-08-24T00:08:33;1.50;;;1.30;;
43152;SDS011;28756;49.064;9.290;2022-08-24T00:11:00;1.42;;;1.30;;
43152;SDS011;28756;49.064;9.290;2022-08-24T00:13:27;1.67;;;1.30;;
43152;SDS011;28756;49.064;9.290;2022-08-24T00:15:53;1.50;;;1.20;;
43152;SDS011;28756;49.064;9.290;2022-08-24T00:18:19;2.40;;;1.30;;
43152;SDS011;28756;49.064;9.290;2022-08-24T00:20:45;3.90;;;1.30;;
43152;SDS011;28756;49.064;9.290;2022-08-24T00:23:12;1.55;;;1.10;;
43152;SDS011;28756;49.064;9.290;2022-08-24T00:25:39;1.55;;;1.33;;
43152;SDS011;28756;49.064;9.290;2022-08-24T00:28:05;1.02;;;0.95;;
43152;SDS011;28756;49.064;9.290;2022-08-24T00:30:32;4.45;;;1.90;;
43152;SDS011;28756;49.064;9.290;2022-08-24T00:32:58;1.45;;;1.35;;
43152;SDS011;28756;49.064;9.290;2022-08-24T00:35:24;1.30;;;1.20;;
43152;SDS011;28756;49.064;9.290;2022-08-24T00:37:50;1.50;;;1.10;;
43152;SDS011;28756;49.064;9.290;2022-08-24T00:42:54;1.20;;;1.10;;
43152;SDS011;28756;49.064;9.290;2022-08-24T00:45:22;1.38;;;1.25;;
43152;SDS011;28756;49.064;9.290;2022-08-24T00:47:56;1.60;;;1.25;;
43152;SDS011;28756;49.064;9.290;2022-08-24T00:50:37;2.65;;;1.40;;
43152;SDS011;28756;49.064;9.290;2022-08-24T00:53:35;2.28;;;1.35;;
43152;SDS011;28756;49.064;9.290;2022-08-24T00:56:04;2.78;;;1.20;;
43152;SDS011;28756;49.064;9.290;2022-08-24T00:58:41;1.95;;;1.10;;
43152;SDS011;28756;49.064;9.290;2022-08-24T01:01:12;1.55;;;1.20;;
43152;SDS011;28756;49.064;9.290;2022-08-24T01:03:38;1.80;;;1.58;;
43152;SDS011;28756;49.064;9.290;2022-08-24T01:06:07;1.30;;;1.20;;
43152;SDS011;28756;49.064;9.290;2022-08-24T01:08:34;1.67;;;1.02;;
43152;SDS011;28756;49.064;9.290;2022-08-24T01:11:01;1.73;;;1.38;;
43152;SDS011;28756;49.064;9.290;2022-08-24T01:13:32;1.70;;;1.20;;
43152;SDS011;28756;49.064;9.290;2022-08-24T01:16:00;2.03;;;1.10;;
43152;SDS011;28756;49.064;9.290;2022-08-24T01:18:29;2.15;;;1.20;;
43152;SDS011;28756;49.064;9.290;2022-08-24T01:23:43;1.85;;;1.20;;
43152;SDS011;28756;49.064;9.290;2022-08-24T01:26:14;2.13;;;1.13;;
43152;SDS011;28756;49.064;9.290;2022-08-24T01:28:48;1.10;;;0.90;;
43152;SDS011;28756;49.064;9.290;2022-08-24T01:31:21;1.33;;;1.23;;
43152;SDS011;28756;49.064;9.290;2022-08-24T01:33:49;2.35;;;1.10;;
43152;SDS011;28756;49.064;9.290;2022-08-24T01:36:20;1.15;;;1.00;;
43152;SDS011;28756;49.064;9.290;2022-08-24T01:39:09;1.20;;;0.90;;
43152;SDS011;28756;49.064;9.290;2022-08-24T01:41:42;1.20;;;1.00;;
43152;SDS011;28756;49.064;9.290;2022-08-24T01:44:08;2.83;;;1.08;;
43152;SDS011;28756;49.064;9.290;2022-08-24T01:46:34;2.05;;;1.40;;
43152;SDS011;28756;49.064;9.290;2022-08-24T01:49:00;1.50;;;1.20;;
43152;SDS011;28756;49.064;9.290;2022-08-24T01:51:30;2.05;;;1.23;;
43152;SDS011;28756;49.064;9.290;2022-08-24T01:53:57;1.92;;;1.48;;
43152;SDS011;28756;49.064;9.290;2022-08-24T01:56:26;1.40;;;1.30;;
43152;SDS011;28756;49.064;9.290;2022-08-24T01:58:52;1.80;;;1.42;;
43152;SDS011;28756;49.064;9.290;2022-08-24T02:01:18;1.33;;;1.23;;
43152;SDS011;28756;49.064;9.290;2022-08-24T02:03:45;2.47;;;1.20;;
43152;SDS011;28756;49.064;9.290;2022-08-24T02:06:11;1.77;;;1.35;;
43152;SDS011;28756;49.064;9.290;2022-08-24T02:08:37;1.50;;;1.20;;
43152;SDS011;28756;49.064;9.290;2022-08-24T02:11:06;2.60;;;1.50;;
43152;SDS011;28756;49.064;9.290;2022-08-24T02:13:32;1.67;;;1.40;;
43152;SDS011;28756;49.064;9.290;2022-08-24T02:16:00;1.55;;;1.27;;
43152;SDS011;28756;49.064;9.290;2022-08-24T02:18:26;1.77;;;1.30;;
43152;SDS011;28756;49.064;9.290;2022-08-24T02:20:51;1.10;;;1.00;;
43152;SDS011;28756;49.064;9.290;2022-08-24T02:23:18;1.10;;;1.00;;
43152;SDS011;28756;49.064;9.290;2022-08-24T02:25:44;1.58;;;1.23;;
43152;SDS011;28756;49.064;9.290;2022-08-24T02:28:10;2.05;;;1.30;;
43152;SDS011;28756;49.064;9.290;2022-08-24T02:30:36;1.50;;;1.40;;
43152;SDS011;28756;49.064;9.290;2022-08-24T02:33:04;1.77;;;1.25;;
43152;SDS011;28756;49.064;9.290;2022-08-24T02:35:32;1.98;;;1.27;;
43152;SDS011;28756;49.064;9.290;2022-08-24T02:37:58;2.25;;;1.48;;
43152;SDS011;28756;49.064;9.290;2022-08-24T02:40:24;2.17;;;1.50;;
43152;SDS011;28756;49.064;9.290;2022-08-24T02:42:50;2.55;;;1.60;;
43152;SDS011;28756;49.064;9.290;2022-08-24T02:45:16;1.90;;;1.50;;
43152;SDS011;28756;49.064;9.290;2022-08-24T02:47:42;2.22;;;1.52;;
43152;SDS011;28756;49.064;9.290;2022-08-24T02:50:11;1.33;;;1.10;;
43152;SDS011;28756;49.064;9.290;2022-08-24T02:52:38;1.40;;;1.30;;
43152;SDS011;28756;49.064;9.290;2022-08-24T02:55:07;1.73;;;1.30;;
43152;SDS011;28756;49.064;9.290;2022-08-24T02:57:36;1.80;;;1.40;;
43152;SDS011;28756;49.064;9.290;2022-08-24T03:00:03;1.92;;;1.40;;
43152;SDS011;28756;49.064;9.290;2022-08-24T03:02:33;1.55;;;1.20;;
43152;SDS011;28756;49.064;9.290;2022-08-24T03:04:59;2.55;;;1.50;;
43152;SDS011;28756;49.064;9.290;2022-08-24T03:07:25;2.50;;;1.35;;
43152;SDS011;28756;49.064;9.290;2022-08-24T03:09:52;2.15;;;1.77;;
43152;SDS011;28756;49.064;9.290;2022-08-24T03:12:17;1.77;;;1.50;;
43152;SDS011;28756;49.064;9.290;2022-08-24T03:14:43;1.40;;;1.30;;
43152;SDS011;28756;49.064;9.290;2022-08-24T03:17:09;1.75;;;1.40;;
43152;SDS011;28756;49.064;9.290;2022-08-24T03:19:36;2.47;;;1.50;;
43152;SDS011;28756;49.064;9.290;2022-08-24T03:22:02;1.52;;;1.30;;
43152;SDS011;28756;49.064;9.290;2022-08-24T03:24:28;3.70;;;1.65;;
43152;SDS011;28756;49.064;9.290;2022-08-24T03:26:54;1.95;;;1.48;;
43152;SDS011;28756;49.064;9.290;2022-08-24T03:29:20;2.85;;;1.85;;
43152;SDS011;28756;49.064;9.290;2022-08-24T03:31:46;1.73;;;1.50;;
43152;SDS011;28756;49.064;9.290;2022-08-24T03:34:12;1.88;;;1.58;;
43152;SDS011;28756;49.064;9.290;2022-08-24T03:36:39;2.03;;;1.60;;
43152;SDS011;28756;49.064;9.290;2022-08-24T03:39:10;2.25;;;1.50;;
43152;SDS011;28756;49.064;9.290;2022-08-24T03:41:37;2.55;;;2.10;;
43152;SDS011;28756;49.064;9.290;2022-08-24T03:44:03;1.92;;;1.55;;
43152;SDS011;28756;49.064;9.290;2022-08-24T03:46:33;1.90;;;1.48;;
43152;SDS011;28756;49.064;9.290;2022-08-24T03:49:02;1.60;;;1.50;;
43152;SDS011;28756;49.064;9.290;2022-08-24T03:51:33;1.70;;;1.40;;
43152;SDS011;28756;49.064;9.290;2022-08-24T03:53:59;1.67;;;1.40;;
43152;SDS011;28756;49.064;9.290;2022-08-24T03:56:26;1.60;;;1.50;;
43152;SDS011;28756;49.064;9.290;2022-08-24T03:58:52;2.08;;;1.50;;
43152;SDS011;28756;49.064;9.290;2022-08-24T04:01:19;1.88;;;1.67;;
43152;SDS011;28756;49.064;9.290;2022-08-24T04:03:45;3.63;;;1.63;;
43152;SDS011;28756;49.064;9.290;2022-08-24T04:06:13;2.72;;;1.77;;
43152;SDS011;28756;49.064;9.290;2022-08-24T04:08:42;1.45;;;1.30;;
43152;SDS011;28756;49.064;9.290;2022-08-24T04:11:12;2.30;;;1.58;;
43152;SDS011;28756;49.064;9.290;2022-08-24T04:13:42;3.85;;;1.70;;
43152;SDS011;28756;49.064;9.290;2022-08-24T04:16:09;3.83;;;1.60;;
43152;SDS011;28756;49.064;9.290;2022-08-24T04:18:38;1.90;;;1.70;;
43152;SDS011;28756;49.064;9.290;2022-08-24T04:21:05;1.50;;;1.40;;
43152;SDS011;28756;49.064;9.290;2022-08-24T04:23:32;1.52;;;1.42;;
43152;SDS011;28756;49.064;9.290;2022-08-24T04:26:02;2.35;;;1.80;;
43152;SDS011;28756;49.064;9.290;2022-08-24T04:28:29;2.17;;;1.75;;
43152;SDS011;28756;49.064;9.290;2022-08-24T04:30:55;1.70;;;1.60;;
43152;SDS011;28756;49.064;9.290;2022-08-24T04:33:21;1.70;;;1.52;;
43152;SDS011;28756;49.064;9.290;2022-08-24T04:35:48;2.92;;;1.80;;
43152;SDS011;28756;49.064;9.290;2022-08-24T04:38:18;2.45;;;1.80;;
43152;SDS011;28756;49.064;9.290;2022-08-24T04:40:45;2.22;;;1.80;;
43152;SDS011;28756;49.064;9.290;2022-08-24T04:43:11;1.85;;;1.67;;
43152;SDS011;28756;49.064;9.290;2022-08-24T04:45:41;2.63;;;1.90;;
43152;SDS011;28756;49.064;9.290;2022-08-24T04:48:09;1.90;;;1.58;;
43152;SDS011;28756;49.064;9.290;2022-08-24T04:50:36;1.58;;;1.40;;
43152;SDS011;28756;49.064;9.290;2022-08-24T04:53:05;2.30;;;1.50;;
43152;SDS011;28756;49.064;9.290;2022-08-24T04:55:32;1.60;;;1.40;;
43152;SDS011;28756;49.064;9.290;2022-08-24T04:58:05;1.52;;;1.40;;
43152;SDS011;28756;49.064;9.290;2022-08-24T05:00:31;2.08;;;1.50;;
43152;SDS011;28756;49.064;9.290;2022-08-24T05:02:57;2.17;;;1.30;;
43152;SDS011;28756;49.064;9.290;2022-08-24T05:05:23;2.35;;;1.50;;
43152;SDS011;28756;49.064;9.290;2022-08-24T05:07:48;1.48;;;1.30;;
43152;SDS011;28756;49.064;9.290;2022-08-24T05:10:14;2.00;;;1.30;;
43152;SDS011;28756;49.064;9.290;2022-08-24T05:12:40;1.52;;;1.30;;
43152;SDS011;28756;49.064;9.290;2022-08-24T05:15:08;1.65;;;1.40;;
43152;SDS011;28756;49.064;9.290;2022-08-24T05:17:34;2.05;;;1.55;;
43152;SDS011;28756;49.064;9.290;2022-08-24T05:20:00;1.50;;;1.40;;
43152;SDS011;28756;49.064;9.290;2022-08-24T05:22:25;1.55;;;1.45;;
43152;SDS011;28756;49.064;9.290;2022-08-24T05:24:51;1.92;;;1.42;;
43152;SDS011;28756;49.064;9.290;2022-08-24T05:27:17;1.60;;;1.20;;
43152;SDS011;28756;49.064;9.290;2022-08-24T05:29:43;1.40;;;1.30;;
43152;SDS011;28756;49.064;9.290;2022-08-24T05:32:10;2.17;;;1.40;;
43152;SDS011;28756;49.064;9.290;2022-08-24T05:34:36;2.42;;;1.67;;
43152;SDS011;28756;49.064;9.290;2022-08-24T05:37:02;2.50;;;1.40;;
43152;SDS011;28756;49.064;9.290;2022-08-24T05:39:28;2.03;;;1.40;;
43152;SDS011;28756;49.064;9.290;2022-08-24T05:41:55;2.38;;;1.58;;
43152;SDS011;28756;49.064;9.290;2022-08-24T05:44:25;4.07;;;1.33;;
43152;SDS011;28756;49.064;9.290;2022-08-24T05:46:54;2.28;;;1.52;;
43152;SDS011;28756;49.064;9.290;2022-08-24T05:49:24;2.60;;;1.50;;
43152;SDS011;28756;49.064;9.290;2022-08-24T05:51:51;1.80;;;1.58;;
43152;SDS011;28756;49.064;9.290;2022-08-24T05:54:18;2.70;;;1.50;;
43152;SDS011;28756;49.064;9.290;2022-08-24T05:56:44;2.13;;;1.63;;
43152;SDS011;28756;49.064;9.290;2022-08-24T05:59:11;1.65;;;1.40;;
43152;SDS011;28756;49.064;9.290;2022-08-24T06:01:39;2.35;;;1.38;;
43152;SDS011;28756;49.064;9.290;2022-08-24T06:33:50;3.40;;;1.92;;
43152;SDS011;28756;49.064;9.290;2022-08-24T06:36:16;2.92;;;2.17;;
43152;SDS011;28756;49.064;9.290;2022-08-24T06:38:42;2.40;;;1.85;;
43152;SDS011;28756;49.064;9.290;2022-08-24T06:41:08;2.88;;;1.80;;
43152;SDS011;28756;49.064;9.290;2022-08-24T06:43:35;3.20;;;1.90;;
43152;SDS011;28756;49.064;9.290;2022-08-24T06:46:01;2.88;;;1.80;;
43152;SDS011;28756;49.064;9.290;2022-08-24T06:48:28;1.95;;;1.85;;
43152;SDS011;28756;49.064;9.290;2022-08-24T06:50:55;3.40;;;2.03;;
43152;SDS011;28756;49.064;9.290;2022-08-24T06:53:22;3.15;;;1.88;;
43152;SDS011;28756;49.064;9.290;2022-08-24T06:55:49;2.80;;;1.80;;
43152;SDS011;28756;49.064;9.290;2022-08-24T06:58:18;3.25;;;1.92;;
43152;SDS011;28756;49.064;9.290;2022-08-24T07:00:45;3.70;;;1.98;;
43152;SDS011;28756;49.064;9.290;2022-08-24T07:03:12;3.05;;;1.67;;
43152;SDS011;28756;49.064;9.290;2022-08-24T07:05:39;2.53;;;1.85;;
43152;SDS011;28756;49.064;9.290;2022-08-24T07:08:16;1.90;;;1.60;;
43152;SDS011;28756;49.064;9.290;2022-08-24T07:10:41;3.13;;;1.75;;
43152;SDS011;28756;49.064;9.290;2022-08-24T07:13:07;3.25;;;1.60;;
43152;SDS011;28756;49.064;9.290;2022-08-24T07:15:35;2.00;;;1.70;;
43152;SDS011;28756;49.064;9.290;2022-08-24T07:18:01;1.83;;;1.50;;
43152;SDS011;28756;49.064;9.290;2022-08-24T07:20:30;1.30;;;1.20;;
43152;SDS011;28756;49.064;9.290;2022-08-24T07:22:56;1.95;;;1.50;;
43152;SDS011;28756;49.064;9.290;2022-08-24T07:25:21;2.08;;;1.20;;
43152;SDS011;28756;49.064;9.290;2022-08-24T07:27:47;1.70;;;1.40;;
43152;SDS011;28756;49.064;9.290;2022-08-24T07:30:13;2.83;;;1.40;;
43152;SDS011;28756;49.064;9.290;2022-08-24T07:32:40;2.78;;;1.63;;
43152;SDS011;28756;49.064;9.290;2022-08-24T07:35:06;2.13;;;1.50;;
43152;SDS011;28756;49.064;9.290;2022-08-24T07:37:32;1.75;;;1.35;;
43152;SDS011;28756;49.064;9.290;2022-08-24T07:39:58;2.10;;;1.33;;
43152;SDS011;28756;49.064;9.290;2022-08-24T07:42:24;1.50;;;1.40;;
43152;SDS011;28756;49.064;9.290;2022-08-24T07:44:50;1.63;;;1.20;;
43152;SDS011;28756;49.064;9.290;2022-08-24T07:47:15;2.03;;;1.10;;
43152;SDS011;28756;49.064;9.290;2022-08-24T07:49:41;1.30;;;1.20;;
43152;SDS011;28756;49.064;9.290;2022-08-24T07:52:08;1.40;;;1.30;;
43152;SDS011;28756;49.064;9.290;2022-08-24T07:54:34;1.20;;;1.10;;
43152;SDS011;28756;49.064;9.290;2022-08-24T07:57:00;3.03;;;1.20;;
43152;SDS011;28756;49.064;9.290;2022-08-24T07:59:28;1.67;;;1.33;;
43152;SDS011;28756;49.064;9.290;2022-08-24T08:01:54;1.92;;;1.10;;
43152;SDS011;28756;49.064;9.290;2022-08-24T08:04:20;1.48;;;1.10;;
43152;SDS011;28756;49.064;9.290;2022-08-24T08:06:49;1.83;;;1.20;;
43152;SDS011;28756;49.064;9.290;2022-08-24T08:09:15;3.10;;;1.10;;
43152;SDS011;28756;49.064;9.290;2022-08-24T08:11:42;2.90;;;1.20;;
43152;SDS011;28756;49.064;9.290;2022-08-24T08:14:08;1.40;;;1.20;;
43152;SDS011;28756;49.064;9.290;2022-08-24T08:16:34;3.80;;;1.40;;
43152;SDS011;28756;49.064;9.290;2022-08-24T08:18:59;3.03;;;1.20;;
43152;SDS011;28756;49.064;9.290;2022-08-24T08:21:25;2.15;;;1.33;;
43152;SDS011;28756;49.064;9.290;2022-08-24T08:24:10;1.60;;;1.10;;
43152;SDS011;28756;49.064;9.290;2022-08-24T08:26:45;1.95;;;1.30;;
43152;SDS011;28756;49.064;9.290;2022-08-24T08:29:16;1.48;;;1.38;;
43152;SDS011;28756;49.064;9.290;2022-08-24T08:31:43;2.67;;;1.70;;
43152;SDS011;28756;49.064;9.290;2022-08-24T08:34:10;1.45;;;1.30;;
43152;SDS011;28756;49.064;9.290;2022-08-24T08:36:37;2.80;;;1.20;;
43152;SDS011;28756;49.064;9.290;2022-08-24T08:39:05;1.52;;;1.13;;
43152;SDS011;28756;49.064;9.290;2022-08-24T08:55:22;2.75;;;1.20;;
43152;SDS011;28756;49.064;9.290;2022-08-24T08:57:55;1.90;;;1.00;;
43152;SDS011;28756;49.064;9.290;2022-08-24T09:01:14;1.42;;;1.20;;
43152;SDS011;28756;49.064;9.290;2022-08-24T09:04:12;1.88;;;1.30;;
43152;SDS011;28756;49.064;9.290;2022-08-24T09:07:19;2.90;;;1.20;;
43152;SDS011;28756;49.064;9.290;2022-08-24T09:30:13;2.10;;;0.80;;
43152;SDS011;28756;49.064;9.290;2022-08-24T09:33:07;1.48;;;0.80;;
43152;SDS011;28756;49.064;9.290;2022-08-24T10:06:06;1.48;;;1.05;;
43152;SDS011;28756;49.064;9.290;2022-08-24T10:09:17;1.65;;;0.82;;
43152;SDS011;28756;49.064;9.290;2022-08-24T10:12:06;5.25;;;0.90;;
43152;SDS011;28756;49.064;9.290;2022-08-24T10:14:53;1.70;;;0.93;;
43152;SDS011;28756;49.064;9.290;2022-08-24T10:36:01;1.40;;;0.93;;
43152;SDS011;28756;49.064;9.290;2022-08-24T10:38:45;1.33;;;1.00;;
43152;SDS011;28756;49.064;9.290;2022-08-24T10:47:22;1.20;;;1.10;;
43152;SDS011;28756;49.064;9.290;2022-08-24T10:53:12;1.65;;;1.00;;
43152;SDS011;28756;49.064;9.290;2022-08-24T10:55:45;1.02;;;0.85;;
43152;SDS011;28756;49.064;9.290;2022-08-24T11:01:15;1.23;;;1.13;;
43152;SDS011;28756;49.064;9.290;2022-08-24T11:06:32;1.98;;;1.10;;
43152;SDS011;28756;49.064;9.290;2022-08-24T11:09:06;1.20;;;1.10;;
43152;SDS011;28756;49.064;9.290;2022-08-24T11:11:42;1.92;;;1.10;;
43152;SDS011;28756;49.064;9.290;2022-08-24T11:14:26;1.38;;;1.00;;
43152;SDS011;28756;49.064;9.290;2022-08-24T11:17:13;1.95;;;1.00;;
43152;SDS011;28756;49.064;9.290;2022-08-24T11:19:43;1.83;;;1.20;;
43152;SDS011;28756;49.064;9.290;2022-08-24T11:25:34;1.48;;;1.20;;
43152;SDS011;28756;49.064;9.290;2022-08-24T11:28:05;1.20;;;1.10;;
43152;SDS011;28756;49.064;9.290;2022-08-24T11:30:44;2.60;;;1.00;;
43152;SDS011;28756;49.064;9.290;2022-08-24T11:36:25;1.50;;;1.13;;
43152;SDS011;28756;49.064;9.290;2022-08-24T11:39:10;1.73;;;1.20;;
43152;SDS011;28756;49.064;9.290;2022-08-24T11:41:53;1.88;;;1.10;;
43152;SDS011;28756;49.064;9.290;2022-08-24T11:44:48;1.67;;;1.20;;
43152;SDS011;28756;49.064;9.290;2022-08-24T11:50:18;3.47;;;1.20;;
43152;SDS011;28756;49.064;9.290;2022-08-24T12:01:58;1.70;;;0.90;;
43152;SDS011;28756;49.064;9.290;2022-08-24T12:04:38;1.60;;;1.20;;
43152;SDS011;28756;49.064;9.290;2022-08-24T12:07:33;2.30;;;1.17;;
43152;SDS011;28756;49.064;9.290;2022-08-24T12:13:15;1.30;;;1.10;;
43152;SDS011;28756;49.064;9.290;2022-08-24T12:19:06;1.20;;;1.10;;
43152;SDS011;28756;49.064;9.290;2022-08-24T12:21:55;1.40;;;1.10;;
43152;SDS011;28756;49.064;9.290;2022-08-24T12:24:48;2.30;;;1.20;;
43152;SDS011;28756;49.064;9.290;2022-08-24T12:27:26;2.13;;;1.05;;
43152;SDS011;28756;49.064;9.290;2022-08-24T12:29:59;2.50;;;1.27;;
43152;SDS011;28756;49.064;9.290;2022-08-24T12:35:33;1.20;;;1.00;;
43152;SDS011;28756;49.064;9.290;2022-08-24T12:38:16;1.02;;;0.93;;
43152;SDS011;28756;49.064;9.290;2022-08-24T12:41:02;3.00;;;1.10;;
43152;SDS011;28756;49.064;9.290;2022-08-24T12:43:37;0.98;;;0.95;;
43152;SDS011;28756;49.064;9.290;2022-08-24T12:46:21;1.17;;;1.08;;
43152;SDS011;28756;49.064;9.290;2022-08-24T12:49:53;2.05;;;1.10;;
43152;SDS011;28756;49.064;9.290;2022-08-24T13:00:47;2.22;;;1.10;;
43152;SDS011;28756;49.064;9.290;2022-08-24T13:05:55;3.80;;;1.00;;
43152;SDS011;28756;49.064;9.290;2022-08-24T13:08:33;1.42;;;1.00;;
43152;SDS011;28756;49.064;9.290;2022-08-24T13:11:11;1.90;;;1.00;;
43152;SDS011;28756;49.064;9.290;2022-08-24T13:21:55;2.45;;;1.00;;
43152;SDS011;28756;49.064;9.290;2022-08-24T13:32:44;1.40;;;1.02;;
43152;SDS011;28756;49.064;9.290;2022-08-24T13:35:28;1.52;;;1.00;;
43152;SDS011;28756;49.064;9.290;2022-08-24T13:38:24;1.60;;;1.13;;
43152;SDS011;28756;49.064;9.290;2022-08-24T13:41:12;1.73;;;1.00;;
43152;SDS011;28756;49.064;9.290;2022-08-24T14:04:34;2.13;;;0.90;;
43152;SDS011;28756;49.064;9.290;2022-08-24T14:07:18;1.58;;;1.13;;
43152;SDS011;28756;49.064;9.290;2022-08-24T14:18:24;1.00;;;0.90;;
43152;SDS011;28756;49.064;9.290;2022-08-24T14:21:06;2.55;;;0.90;;
43152;SDS011;28756;49.064;9.290;2022-08-24T14:39:38;1.45;;;1.00;;
43152;SDS011;28756;49.064;9.290;2022-08-24T14:42:37;1.20;;;1.10;;
43152;SDS011;28756;49.064;9.290;2022-08-24T14:48:33;0.95;;;0.80;;
43152;SDS011;28756;49.064;9.290;2022-08-24T14:59:55;1.92;;;0.90;;
43152;SDS011;28756;49.064;9.290;2022-08-24T15:05:27;2.25;;;1.00;;
43152;SDS011;28756;49.064;9.290;2022-08-24T15:11:04;1.13;;;0.90;;
43152;SDS011;28756;49.064;9.290;2022-08-24T15:13:54;2.85;;;0.95;;
43152;SDS011;28756;49.064;9.290;2022-08-24T15:16:42;1.10;;;0.90;;
43152;SDS011;28756;49.064;9.290;2022-08-24T15:19:15;1.05;;;0.90;;
43152;SDS011;28756;49.064;9.290;2022-08-24T15:21:55;1.60;;;1.02;;
43152;SDS011;28756;49.064;9.290;2022-08-24T15:24:39;1.10;;;1.00;;
43152;SDS011;28756;49.064;9.290;2022-08-24T15:30:39;2.38;;;1.10;;
43152;SDS011;28756;49.064;9.290;2022-08-24T15:33:12;1.10;;;1.00;;
43152;SDS011;28756;49.064;9.290;2022-08-24T15:35:45;1.05;;;0.95;;
43152;SDS011;28756;49.064;9.290;2022-08-24T15:43:42;1.42;;;1.17;;
43152;SDS011;28756;49.064;9.290;2022-08-24T15:46:20;1.17;;;1.02;;
43152;SDS011;28756;49.064;9.290;2022-08-24T15:49:27;0.95;;;0.85;;
43152;SDS011;28756;49.064;9.290;2022-08-24T15:51:55;1.20;;;1.00;;
43152;SDS011;28756;49.064;9.290;2022-08-24T15:54:26;2.85;;;1.00;;
43152;SDS011;28756;49.064;9.290;2022-08-24T15:59:45;1.33;;;1.00;;
43152;SDS011;28756;49.064;9.290;2022-08-24T16:10:32;1.20;;;1.10;;
43152;SDS011;28756;49.064;9.290;2022-08-24T16:18:25;1.08;;;0.93;;
43152;SDS011;28756;49.064;9.290;2022-08-24T16:21:17;1.05;;;0.95;;
43152;SDS011;28756;49.064;9.290;2022-08-24T16:32:18;1.58;;;1.08;;
43152;SDS011;28756;49.064;9.290;2022-08-24T16:34:50;1.50;;;1.20;;
43152;SDS011;28756;49.064;9.290;2022-08-24T16:37:38;1.10;;;1.00;;
43152;SDS011;28756;49.064;9.290;2022-08-24T16:40:05;2.28;;;1.17;;
43152;SDS011;28756;49.064;9.290;2022-08-24T16:42:32;1.35;;;1.00;;
43152;SDS011;28756;49.064;9.290;2022-08-24T16:44:59;1.40;;;1.15;;
43152;SDS011;28756;49.064;9.290;2022-08-24T16:47:26;1.55;;;1.10;;
43152;SDS011;28756;49.064;9.290;2022-08-24T16:49:52;2.95;;;1.00;;
43152;SDS011;28756;49.064;9.290;2022-08-24T16:52:18;1.55;;;1.00;;
43152;SDS011;28756;49.064;9.290;2022-08-24T16:54:45;1.73;;;1.10;;
43152;SDS011;28756;49.064;9.290;2022-08-24T16:57:19;1.90;;;1.30;;
43152;SDS011;28756;49.064;9.290;2022-08-24T16:59:49;1.70;;;1.10;;
43152;SDS011;28756;49.064;9.290;2022-08-24T17:02:17;1.10;;;1.00;;
43152;SDS011;28756;49.064;9.290;2022-08-24T17:04:45;1.10;;;1.00;;
43152;SDS011;28756;49.064;9.290;2022-08-24T17:07:13;1.10;;;1.00;;
43152;SDS011;28756;49.064;9.290;2022-08-24T17:09:44;1.55;;;0.90;;
43152;SDS011;28756;49.064;9.290;2022-08-24T17:12:11;1.20;;;1.10;;
43152;SDS011;28756;49.064;9.290;2022-08-24T17:14:37;2.00;;;0.90;;
43152;SDS011;28756;49.064;9.290;2022-08-24T17:17:08;2.85;;;1.10;;
43152;SDS011;28756;49.064;9.290;2022-08-24T17:19:38;1.10;;;1.00;;
43152;SDS011;28756;49.064;9.290;2022-08-24T17:22:04;1.30;;;1.20;;
43152;SDS011;28756;49.064;9.290;2022-08-24T17:24:30;1.10;;;1.00;;
43152;SDS011;28756;49.064;9.290;2022-08-24T17:26:57;1.25;;;1.10;;
43152;SDS011;28756;49.064;9.290;2022-08-24T17:29:23;1.20;;;1.02;;
43152;SDS011;28756;49.064;9.290;2022-08-24T17:31:50;1.00;;;0.90;;
43152;SDS011;28756;49.064;9.290;2022-08-24T17:34:19;1.30;;;1.02;;
43152;SDS011;28756;49.064;9.290;2022-08-24T17:36:50;1.35;;;1.00;;
43152;SDS011;28756;49.064;9.290;2022-08-24T17:39:19;1.20;;;1.10;;
43152;SDS011;28756;49.064;9.290;2022-08-24T17:41:48;1.52;;;1.10;;
43152;SDS011;28756;49.064;9.290;2022-08-24T17:44:20;0.95;;;0.85;;
43152;SDS011;28756;49.064;9.290;2022-08-24T17:46:50;1.30;;;1.00;;
43152;SDS011;28756;49.064;9.290;2022-08-24T17:49:19;1.15;;;1.00;;
43152;SDS011;28756;49.064;9.290;2022-08-24T17:51:45;1.08;;;0.93;;
43152;SDS011;28756;49.064;9.290;2022-08-24T17:54:12;1.27;;;1.17;;
43152;SDS011;28756;49.064;9.290;2022-08-24T17:56:38;1.05;;;0.98;;
43152;SDS011;28756;49.064;9.290;2022-08-24T17:59:04;1.35;;;1.02;;
43152;SDS011;28756;49.064;9.290;2022-08-24T18:01:52;1.10;;;1.00;;
43152;SDS011;28756;49.064;9.290;2022-08-24T18:04:24;2.38;;;1.00;;
43152;SDS011;28756;49.064;9.290;2022-08-24T18:06:54;2.08;;;1.50;;
43152;SDS011;28756;49.064;9.290;2022-08-24T18:09:55;1.27;;;1.17;;
43152;SDS011;28756;49.064;9.290;2022-08-24T18:12:20;1.90;;;1.40;;
43152;SDS011;28756;49.064;9.290;2022-08-24T18:14:48;1.27;;;1.10;;
43152;SDS011;28756;49.064;9.290;2022-08-24T18:17:16;1.88;;;1.25;;
43152;SDS011;28756;49.064;9.290;2022-08-24T18:19:53;1.10;;;1.00;;
43152;SDS011;28756;49.064;9.290;2022-08-24T18:22:20;2.00;;;1.10;;
43152;SDS011;28756;49.064;9.290;2022-08-24T18:24:45;1.17;;;1.08;;
43152;SDS011;28756;49.064;9.290;2022-08-24T18:27:12;1.67;;;1.10;;
43152;SDS011;28756;49.064;9.290;2022-08-24T18:29:42;1.20;;;1.10;;
43152;SDS011;28756;49.064;9.290;2022-08-24T18:32:09;3.03;;;1.40;;
43152;SDS011;28756;49.064;9.290;2022-08-24T18:34:36;1.05;;;0.95;;
43152;SDS011;28756;49.064;9.290;2022-08-24T18:37:02;1.00;;;0.90;;
43152;SDS011;28756;49.064;9.290;2022-08-24T18:39:28;1.83;;;1.10;;
43152;SDS011;28756;49.064;9.290;2022-08-24T18:41:54;1.10;;;1.00;;
43152;SDS011;28756;49.064;9.290;2022-08-24T18:44:24;1.48;;;1.00;;
43152;SDS011;28756;49.064;9.290;2022-08-24T18:46:50;1.25;;;1.10;;
43152;SDS011;28756;49.064;9.290;2022-08-24T18:49:17;1.20;;;1.10;;
43152;SDS011;28756;49.064;9.290;2022-08-24T18:51:44;1.45;;;1.00;;
43152;SDS011;28756;49.064;9.290;2022-08-24T18:54:15;1.10;;;1.00;;
43152;SDS011;28756;49.064;9.290;2022-08-24T18:56:44;1.35;;;1.10;;
43152;SDS011;28756;49.064;9.290;2022-08-24T18:59:12;1.00;;;1.00;;
43152;SDS011;28756;49.064;9.290;2022-08-24T19:01:40;1.48;;;1.38;;
43152;SDS011;28756;49.064;9.290;2022-08-24T19:04:26;1.23;;;1.13;;
43152;SDS011;28756;49.064;9.290;2022-08-24T19:06:52;1.30;;;1.20;;
43152;SDS011;28756;49.064;9.290;2022-08-24T19:09:18;1.42;;;1.27;;
43152;SDS011;28756;49.064;9.290;2022-08-24T19:11:44;1.77;;;1.23;;
43152;SDS011;28756;49.064;9.290;2022-08-24T19:14:10;1.40;;;1.20;;
43152;SDS011;28756;49.064;9.290;2022-08-24T19:16:37;5.32;;;1.45;;
43152;SDS011;28756;49.064;9.290;2022-08-24T19:19:04;1.33;;;1.23;;
43152;SDS011;28756;49.064;9.290;2022-08-24T19:21:30;2.10;;;1.50;;
43152;SDS011;28756;49.064;9.290;2022-08-24T19:23:59;1.70;;;1.33;;
43152;SDS011;28756;49.064;9.290;2022-08-24T19:26:28;1.80;;;1.08;;
43152;SDS011;28756;49.064;9.290;2022-08-24T19:28:54;1.85;;;1.50;;
43152;SDS011;28756;49.064;9.290;2022-08-24T19:31:22;1.73;;;1.48;;
43152;SDS011;28756;49.064;9.290;2022-08-24T19:33:50;2.53;;;1.30;;
43152;SDS011;28756;49.064;9.290;2022-08-24T19:36:17;1.60;;;1.17;;
43152;SDS011;28756;49.064;9.290;2022-08-24T19:38:46;1.40;;;1.20;;
43152;SDS011;28756;49.064;9.290;2022-08-24T19:41:12;1.80;;;1.35;;
43152;SDS011;28756;49.064;9.290;2022-08-24T19:43:39;2.60;;;1.23;;
43152;SDS011;28756;49.064;9.290;2022-08-24T19:46:24;1.40;;;1.30;;
43152;SDS011;28756;49.064;9.290;2022-08-24T19:48:50;2.50;;;1.85;;
43152;SDS011;28756;49.064;9.290;2022-08-24T19:51:16;2.80;;;1.70;;
43152;SDS011;28756;49.064;9.290;2022-08-24T19:53:45;1.50;;;1.40;;
43152;SDS011;28756;49.064;9.290;2022-08-24T19:56:11;1.95;;;1.60;;